TimeICT,TemperatureF,Dew PointF,Humidity,Sea Level PressureIn,VisibilityMPH,Wind Direction,Wind SpeedMPH,Gust SpeedMPH,PrecipitationIn,Events,Conditions,WindDirDegrees,DateUTC
12:00 AM,78.8,73.4,83,29.83,3.1,Calm,Calm,-,N/A,,Mostly Cloudy,0,2012-12-21 17:00:00
12:30 AM,78.8,73.4,83,29.83,3.1,Calm,Calm,-,N/A,,Mostly Cloudy,0,2012-12-21 17:30:00
1:00 AM,77.0,71.6,83,29.83,3.1,Calm,Calm,-,N/A,,Mostly Cloudy,0,2012-12-21 18:00:00
1:30 AM,77.0,71.6,83,29.83,3.1,Calm,Calm,-,N/A,,Mostly Cloudy,0,2012-12-21 18:30:00
2:00 AM,77.0,71.6,83,29.80,3.1,Calm,Calm,-,N/A,,Mostly Cloudy,0,2012-12-21 19:00:00
2:30 AM,75.2,71.6,89,29.77,3.1,Calm,Calm,-,N/A,,Scattered Clouds,0,2012-12-21 19:30:00
3:00 AM,75.2,71.6,89,29.77,3.1,Calm,Calm,-,N/A,,Mostly Cloudy,0,2012-12-21 20:00:00
3:30 AM,75.2,71.6,89,29.77,3.1,Calm,Calm,-,N/A,,Scattered Clouds,0,2012-12-21 20:30:00
4:00 AM,75.2,71.6,89,29.77,3.1,Calm,Calm,-,N/A,,Scattered Clouds,0,2012-12-21 21:00:00
4:30 AM,75.2,71.6,89,29.74,3.1,Calm,Calm,-,N/A,,Scattered Clouds,0,2012-12-21 21:30:00
5:00 AM,75.2,71.6,89,29.77,3.1,Calm,Calm,-,N/A,,Scattered Clouds,0,2012-12-21 22:00:00
5:30 AM,75.2,71.6,89,29.77,3.1,Calm,Calm,-,N/A,,Scattered Clouds,0,2012-12-21 22:30:00
6:00 AM,75.2,69.8,83,29.77,3.1,Calm,Calm,-,N/A,,Mostly Cloudy,0,2012-12-21 23:00:00
6:30 AM,75.2,69.8,83,29.77,3.1,Calm,Calm,-,N/A,,Mostly Cloudy,0,2012-12-21 23:30:00
7:00 AM,75.2,69.8,83,29.77,3.1,Calm,Calm,-,N/A,,Mostly Cloudy,0,2012-12-22 00:00:00
7:30 AM,77.0,69.8,78,29.80,3.1,NNE,4.6,-,N/A,,Mostly Cloudy,20,2012-12-22 00:30:00
8:00 AM,77.0,69.8,78,29.83,3.1,NNE,3.5,-,N/A,,Mostly Cloudy,20,2012-12-22 01:00:00
8:30 AM,78.8,71.6,78,29.83,3.1,NNE,4.6,-,N/A,,Mostly Cloudy,20,2012-12-22 01:30:00
9:00 AM,82.4,71.6,70,29.86,3.1,NE,4.6,-,N/A,,Mostly Cloudy,50,2012-12-22 02:00:00
9:30 AM,86.0,71.6,62,29.86,3.1,NE,6.9,-,N/A,,Mostly Cloudy,50,2012-12-22 02:30:00
10:00 AM,87.8,71.6,58,29.86,3.1,NE,4.6,-,N/A,,Haze,50,2012-12-22 03:00:00
10:30 AM,86.0,71.6,62,29.86,3.1,NE,6.9,-,N/A,,Haze,40,2012-12-22 03:30:00
11:00 AM,89.6,68.0,49,29.83,3.7,NNE,6.9,-,N/A,,Mostly Cloudy,20,2012-12-22 04:00:00
11:30 AM,89.6,64.4,43,29.83,3.7,NNE,9.2,-,N/A,,Mostly Cloudy,20,2012-12-22 04:30:00
12:00 PM,93.2,64.4,38,29.80,4.3,East,9.2,-,N/A,,Mostly Cloudy,90,2012-12-22 05:00:00
12:30 PM,93.2,64.4,38,29.80,4.3,ESE,9.2,-,N/A,,Mostly Cloudy,120,2012-12-22 05:30:00
1:00 PM,93.2,68.0,44,29.77,5.0,SSE,9.2,-,N/A,,Mostly Cloudy,150,2012-12-22 06:00:00
1:30 PM,93.2,69.8,46,29.77,5.0,SSW,9.2,-,N/A,,Mostly Cloudy,200,2012-12-22 06:30:00
2:00 PM,93.2,68.0,44,29.74,5.0,SSW,9.2,-,N/A,,Mostly Cloudy,200,2012-12-22 07:00:00
2:30 PM,91.4,69.8,49,29.74,5.0,SSW,9.2,-,N/A,,Mostly Cloudy,210,2012-12-22 07:30:00
3:00 PM,93.2,71.6,49,29.74,5.0,WSW,9.2,-,N/A,,Mostly Cloudy,240,2012-12-22 08:00:00
3:30 PM,93.2,69.8,46,29.74,5.0,West,6.9,-,N/A,,Mostly Cloudy,270,2012-12-22 08:30:00
4:00 PM,91.4,71.6,52,29.74,5.0,SW,6.9,-,N/A,,Mostly Cloudy,230,2012-12-22 09:00:00
4:30 PM,91.4,71.6,52,29.74,4.3,SW,9.2,-,N/A,,Mostly Cloudy,230,2012-12-22 09:30:00
5:00 PM,89.6,71.6,55,29.77,4.3,SSW,6.9,-,N/A,,Mostly Cloudy,210,2012-12-22 10:00:00
5:30 PM,87.8,71.6,58,29.77,4.3,SSW,6.9,-,N/A,,Mostly Cloudy,210,2012-12-22 10:30:00
6:00 PM,86.0,71.6,62,29.77,3.7,WSW,4.6,-,N/A,,Mostly Cloudy,240,2012-12-22 11:00:00
6:30 PM,86.0,71.6,62,29.77,3.7,WNW,4.6,-,N/A,,Mostly Cloudy,300,2012-12-22 11:30:00
7:00 PM,84.2,71.6,66,29.77,3.7,NW,2.3,-,N/A,,Mostly Cloudy,320,2012-12-22 12:00:00
7:30 PM,82.4,71.6,70,29.80,3.7,NE,3.5,-,N/A,,Mostly Cloudy,50,2012-12-22 12:30:00
8:00 PM,82.4,71.6,70,29.80,3.1,ENE,2.3,-,N/A,,Mostly Cloudy,60,2012-12-22 13:00:00
8:30 PM,82.4,73.4,74,29.83,3.1,ENE,2.3,-,N/A,,Mostly Cloudy,60,2012-12-22 13:30:00
9:00 PM,80.6,73.4,79,29.83,3.1,NNE,2.3,-,N/A,,Mist,30,2012-12-22 14:00:00
9:30 PM,80.6,73.4,79,29.83,3.1,NNE,2.3,-,N/A,,Mostly Cloudy,20,2012-12-22 14:30:00
10:00 PM,78.8,73.4,83,29.83,3.1,North,2.3,-,N/A,,Mist,350,2012-12-22 15:00:00
10:30 PM,78.8,73.4,83,29.83,2.5,NE,2.3,-,N/A,,Mist,40,2012-12-22 15:30:00
11:00 PM,78.8,73.4,83,29.83,2.5,North,2.3,-,N/A,,Mist,10,2012-12-22 16:00:00
11:30 PM,78.8,73.4,83,29.83,2.5,NE,2.3,-,N/A,,Mist,40,2012-12-22 16:30:00